sensor_id;sensor_type;location;lat;lon;timestamp;P1;durP1;ratioP1;P2;durP2;ratioP2
22814;SDS011;11574;51.058;13.712;2023-09-18T00:03:29;4.60;;;3.50;;
22814;SDS011;11574;51.058;13.712;2023-09-18T00:08:31;6.33;;;3.57;;
22814;SDS011;11574;51.058;13.712;2023-09-18T00:13:35;7.13;;;3.50;;
22814;SDS011;11574;51.058;13.712;2023-09-18T00:18:39;5.60;;;3.63;;
22814;SDS011;11574;51.058;13.712;2023-09-18T00:23:42;4.07;;;3.23;;
22814;SDS011;11574;51.058;13.712;2023-09-18T00:28:44;4.70;;;4.20;;
22814;SDS011;11574;51.058;13.712;2023-09-18T00:33:51;3.90;;;3.37;;
22814;SDS011;11574;51.058;13.712;2023-09-18T00:38:53;6.57;;;3.63;;
22814;SDS011;11574;51.058;13.712;2023-09-18T00:43:55;5.27;;;3.70;;
22814;SDS011;11574;51.058;13.712;2023-09-18T00:49:01;4.57;;;3.60;;
22814;SDS011;11574;51.058;13.712;2023-09-18T00:54:05;6.93;;;4.27;;
22814;SDS011;11574;51.058;13.712;2023-09-18T00:59:08;5.97;;;4.10;;
22814;SDS011;11574;51.058;13.712;2023-09-18T01:04:12;4.43;;;3.93;;
22814;SDS011;11574;51.058;13.712;2023-09-18T01:09:15;20.20;;;3.87;;
22814;SDS011;11574;51.058;13.712;2023-09-18T01:14:19;4.60;;;4.03;;
22814;SDS011;11574;51.058;13.712;2023-09-18T01:19:37;5.23;;;4.20;;
22814;SDS011;11574;51.058;13.712;2023-09-18T01:24:40;7.67;;;4.40;;
22814;SDS011;11574;51.058;13.712;2023-09-18T01:29:43;5.27;;;3.77;;
22814;SDS011;11574;51.058;13.712;2023-09-18T01:34:46;6.33;;;4.03;;
22814;SDS011;11574;51.058;13.712;2023-09-18T01:39:50;4.90;;;4.17;;
22814;SDS011;11574;51.058;13.712;2023-09-18T01:44:53;5.07;;;4.10;;
22814;SDS011;11574;51.058;13.712;2023-09-18T01:49:55;6.10;;;4.60;;
22814;SDS011;11574;51.058;13.712;2023-09-18T01:54:59;8.13;;;4.60;;
22814;SDS011;11574;51.058;13.712;2023-09-18T02:00:01;4.43;;;3.90;;
22814;SDS011;11574;51.058;13.712;2023-09-18T02:05:07;4.50;;;4.10;;
22814;SDS011;11574;51.058;13.712;2023-09-18T02:10:11;7.73;;;4.40;;
22814;SDS011;11574;51.058;13.712;2023-09-18T02:15:13;5.27;;;4.70;;
22814;SDS011;11574;51.058;13.712;2023-09-18T02:20:18;9.07;;;4.80;;
22814;SDS011;11574;51.058;13.712;2023-09-18T02:25:22;5.37;;;4.17;;
22814;SDS011;11574;51.058;13.712;2023-09-18T02:30:26;5.77;;;4.87;;
22814;SDS011;11574;51.058;13.712;2023-09-18T02:35:28;6.20;;;4.60;;
22814;SDS011;11574;51.058;13.712;2023-09-18T02:40:32;5.93;;;4.67;;
22814;SDS011;11574;51.058;13.712;2023-09-18T02:45:34;6.17;;;4.60;;
22814;SDS011;11574;51.058;13.712;2023-09-18T02:50:36;6.00;;;4.90;;
22814;SDS011;11574;51.058;13.712;2023-09-18T02:55:40;6.83;;;4.57;;
22814;SDS011;11574;51.058;13.712;2023-09-18T03:00:43;6.10;;;5.20;;
22814;SDS011;11574;51.058;13.712;2023-09-18T03:05:46;10.47;;;4.90;;
22814;SDS011;11574;51.058;13.712;2023-09-18T03:10:49;6.90;;;5.40;;
22814;SDS011;11574;51.058;13.712;2023-09-18T03:15:54;6.27;;;4.93;;
22814;SDS011;11574;51.058;13.712;2023-09-18T03:20:57;6.17;;;5.47;;
22814;SDS011;11574;51.058;13.712;2023-09-18T03:26:01;5.40;;;4.90;;
22814;SDS011;11574;51.058;13.712;2023-09-18T03:31:03;6.07;;;4.83;;
22814;SDS011;11574;51.058;13.712;2023-09-18T03:36:07;7.17;;;4.83;;
22814;SDS011;11574;51.058;13.712;2023-09-18T03:41:12;5.70;;;4.87;;
22814;SDS011;11574;51.058;13.712;2023-09-18T03:46:15;7.60;;;5.50;;
22814;SDS011;11574;51.058;13.712;2023-09-18T03:51:17;7.87;;;5.30;;
22814;SDS011;11574;51.058;13.712;2023-09-18T03:56:21;6.87;;;5.13;;
22814;SDS011;11574;51.058;13.712;2023-09-18T04:01:24;7.80;;;5.67;;
22814;SDS011;11574;51.058;13.712;2023-09-18T04:06:32;6.97;;;5.70;;
22814;SDS011;11574;51.058;13.712;2023-09-18T04:11:39;7.43;;;5.10;;
22814;SDS011;11574;51.058;13.712;2023-09-18T04:16:41;7.90;;;5.30;;
22814;SDS011;11574;51.058;13.712;2023-09-18T04:21:44;6.17;;;5.40;;
22814;SDS011;11574;51.058;13.712;2023-09-18T04:26:48;6.93;;;5.30;;
22814;SDS011;11574;51.058;13.712;2023-09-18T04:31:51;7.20;;;5.43;;
22814;SDS011;11574;51.058;13.712;2023-09-18T04:36:54;7.63;;;5.60;;
22814;SDS011;11574;51.058;13.712;2023-09-18T04:41:58;9.00;;;5.63;;
22814;SDS011;11574;51.058;13.712;2023-09-18T04:47:00;8.60;;;5.70;;
22814;SDS011;11574;51.058;13.712;2023-09-18T04:52:03;11.90;;;5.87;;
22814;SDS011;11574;51.058;13.712;2023-09-18T04:57:07;6.47;;;5.17;;
22814;SDS011;11574;51.058;13.712;2023-09-18T05:02:10;7.63;;;6.03;;
22814;SDS011;11574;51.058;13.712;2023-09-18T05:07:12;8.20;;;5.87;;
22814;SDS011;11574;51.058;13.712;2023-09-18T05:12:15;7.87;;;5.40;;
22814;SDS011;11574;51.058;13.712;2023-09-18T05:17:18;11.83;;;6.03;;
22814;SDS011;11574;51.058;13.712;2023-09-18T05:22:20;7.90;;;6.10;;
22814;SDS011;11574;51.058;13.712;2023-09-18T05:27:29;9.47;;;5.83;;
22814;SDS011;11574;51.058;13.712;2023-09-18T05:32:31;9.93;;;6.13;;
22814;SDS011;11574;51.058;13.712;2023-09-18T05:37:33;8.80;;;5.17;;
22814;SDS011;11574;51.058;13.712;2023-09-18T05:42:38;9.30;;;6.10;;
22814;SDS011;11574;51.058;13.712;2023-09-18T05:47:43;10.63;;;5.73;;
22814;SDS011;11574;51.058;13.712;2023-09-18T05:52:45;8.60;;;5.43;;
22814;SDS011;11574;51.058;13.712;2023-09-18T05:57:50;8.67;;;6.17;;
22814;SDS011;11574;51.058;13.712;2023-09-18T06:02:53;6.40;;;5.30;;
22814;SDS011;11574;51.058;13.712;2023-09-18T06:07:55;6.13;;;5.23;;
22814;SDS011;11574;51.058;13.712;2023-09-18T06:12:58;8.00;;;4.70;;
22814;SDS011;11574;51.058;13.712;2023-09-18T06:18:04;7.77;;;4.80;;
22814;SDS011;11574;51.058;13.712;2023-09-18T06:23:06;7.93;;;4.40;;
22814;SDS011;11574;51.058;13.712;2023-09-18T06:28:10;9.17;;;4.47;;
22814;SDS011;11574;51.058;13.712;2023-09-18T06:33:13;5.23;;;4.70;;
22814;SDS011;11574;51.058;13.712;2023-09-18T06:38:15;5.47;;;4.70;;
22814;SDS011;11574;51.058;13.712;2023-09-18T06:43:20;5.77;;;4.83;;
22814;SDS011;11574;51.058;13.712;2023-09-18T06:48:23;5.73;;;4.50;;
22814;SDS011;11574;51.058;13.712;2023-09-18T06:53:26;6.43;;;4.90;;
22814;SDS011;11574;51.058;13.712;2023-09-18T06:58:32;8.80;;;4.65;;
22814;SDS011;11574;51.058;13.712;2023-09-18T07:03:34;5.53;;;4.72;;
22814;SDS011;11574;51.058;13.712;2023-09-18T07:08:40;5.57;;;4.43;;
22814;SDS011;11574;51.058;13.712;2023-09-18T07:13:44;7.63;;;4.22;;
22814;SDS011;11574;51.058;13.712;2023-09-18T07:18:46;6.75;;;4.30;;
22814;SDS011;11574;51.058;13.712;2023-09-18T07:23:48;4.93;;;4.35;;
22814;SDS011;11574;51.058;13.712;2023-09-18T07:28:52;7.53;;;4.70;;
22814;SDS011;11574;51.058;13.712;2023-09-18T07:33:55;6.20;;;4.50;;
22814;SDS011;11574;51.058;13.712;2023-09-18T07:38:57;5.03;;;4.53;;
22814;SDS011;11574;51.058;13.712;2023-09-18T07:44:00;6.10;;;3.85;;
22814;SDS011;11574;51.058;13.712;2023-09-18T07:49:03;7.70;;;4.45;;
22814;SDS011;11574;51.058;13.712;2023-09-18T07:54:06;8.48;;;4.38;;
22814;SDS011;11574;51.058;13.712;2023-09-18T07:59:10;5.85;;;3.85;;
22814;SDS011;11574;51.058;13.712;2023-09-18T08:04:14;10.68;;;4.25;;
22814;SDS011;11574;51.058;13.712;2023-09-18T08:09:16;7.60;;;4.32;;
22814;SDS011;11574;51.058;13.712;2023-09-18T08:14:20;5.07;;;3.83;;
22814;SDS011;11574;51.058;13.712;2023-09-18T08:19:22;6.30;;;3.88;;
22814;SDS011;11574;51.058;13.712;2023-09-18T08:24:26;8.05;;;3.70;;
22814;SDS011;11574;51.058;13.712;2023-09-18T08:29:30;5.68;;;3.50;;
22814;SDS011;11574;51.058;13.712;2023-09-18T08:34:32;7.18;;;4.43;;
22814;SDS011;11574;51.058;13.712;2023-09-18T08:39:34;10.00;;;3.92;;
22814;SDS011;11574;51.058;13.712;2023-09-18T08:44:39;7.45;;;3.55;;
22814;SDS011;11574;51.058;13.712;2023-09-18T08:49:44;6.38;;;3.35;;
22814;SDS011;11574;51.058;13.712;2023-09-18T08:54:51;9.70;;;3.40;;
22814;SDS011;11574;51.058;13.712;2023-09-18T08:59:55;11.10;;;4.03;;
22814;SDS011;11574;51.058;13.712;2023-09-18T09:04:58;10.25;;;3.40;;
22814;SDS011;11574;51.058;13.712;2023-09-18T09:10:00;5.78;;;3.22;;
22814;SDS011;11574;51.058;13.712;2023-09-18T09:15:06;9.02;;;3.65;;
22814;SDS011;11574;51.058;13.712;2023-09-18T09:20:09;6.93;;;3.50;;
22814;SDS011;11574;51.058;13.712;2023-09-18T09:25:21;7.20;;;3.20;;
22814;SDS011;11574;51.058;13.712;2023-09-18T09:30:27;8.15;;;3.42;;
22814;SDS011;11574;51.058;13.712;2023-09-18T09:35:30;5.97;;;3.45;;
22814;SDS011;11574;51.058;13.712;2023-09-18T09:40:35;4.40;;;2.88;;
22814;SDS011;11574;51.058;13.712;2023-09-18T09:45:42;7.80;;;3.65;;
22814;SDS011;11574;51.058;13.712;2023-09-18T09:50:45;8.38;;;3.05;;
22814;SDS011;11574;51.058;13.712;2023-09-18T09:55:54;10.25;;;3.20;;
22814;SDS011;11574;51.058;13.712;2023-09-18T10:00:58;7.18;;;3.60;;
22814;SDS011;11574;51.058;13.712;2023-09-18T10:06:05;4.60;;;3.28;;
22814;SDS011;11574;51.058;13.712;2023-09-18T10:11:09;7.30;;;2.95;;
22814;SDS011;11574;51.058;13.712;2023-09-18T10:16:18;4.53;;;3.38;;
22814;SDS011;11574;51.058;13.712;2023-09-18T10:21:26;8.52;;;3.20;;
22814;SDS011;11574;51.058;13.712;2023-09-18T10:26:32;7.30;;;3.17;;
22814;SDS011;11574;51.058;13.712;2023-09-18T10:31:36;5.28;;;3.30;;
22814;SDS011;11574;51.058;13.712;2023-09-18T10:36:39;6.43;;;3.30;;
22814;SDS011;11574;51.058;13.712;2023-09-18T10:41:43;4.57;;;3.20;;
22814;SDS011;11574;51.058;13.712;2023-09-18T10:46:48;7.13;;;3.03;;
22814;SDS011;11574;51.058;13.712;2023-09-18T10:51:52;6.68;;;3.40;;
22814;SDS011;11574;51.058;13.712;2023-09-18T10:56:55;7.75;;;3.30;;
22814;SDS011;11574;51.058;13.712;2023-09-18T11:02:03;3.90;;;3.25;;
22814;SDS011;11574;51.058;13.712;2023-09-18T11:07:06;7.38;;;3.00;;
22814;SDS011;11574;51.058;13.712;2023-09-18T11:12:09;4.40;;;2.65;;
22814;SDS011;11574;51.058;13.712;2023-09-18T11:17:29;3.20;;;2.40;;
22814;SDS011;11574;51.058;13.712;2023-09-18T11:22:31;4.07;;;2.22;;
22814;SDS011;11574;51.058;13.712;2023-09-18T11:27:42;3.00;;;2.42;;
22814;SDS011;11574;51.058;13.712;2023-09-18T11:32:56;3.85;;;2.58;;
22814;SDS011;11574;51.058;13.712;2023-09-18T11:38:06;2.67;;;2.47;;
22814;SDS011;11574;51.058;13.712;2023-09-18T11:48:27;3.33;;;2.67;;
22814;SDS011;11574;51.058;13.712;2023-09-18T11:53:33;6.03;;;2.65;;
22814;SDS011;11574;51.058;13.712;2023-09-18T11:58:44;3.97;;;2.53;;
22814;SDS011;11574;51.058;13.712;2023-09-18T12:03:48;5.22;;;2.90;;
22814;SDS011;11574;51.058;13.712;2023-09-18T12:08:54;3.17;;;2.88;;
22814;SDS011;11574;51.058;13.712;2023-09-18T12:13:56;3.78;;;2.50;;
22814;SDS011;11574;51.058;13.712;2023-09-18T12:19:00;5.97;;;3.00;;
22814;SDS011;11574;51.058;13.712;2023-09-18T12:24:06;5.68;;;2.90;;
22814;SDS011;11574;51.058;13.712;2023-09-18T12:29:09;10.07;;;3.97;;
22814;SDS011;11574;51.058;13.712;2023-09-18T12:34:17;6.72;;;4.25;;
22814;SDS011;11574;51.058;13.712;2023-09-18T12:39:21;4.53;;;3.90;;
22814;SDS011;11574;51.058;13.712;2023-09-18T12:44:23;4.90;;;3.53;;
22814;SDS011;11574;51.058;13.712;2023-09-18T12:49:27;2.70;;;2.45;;
22814;SDS011;11574;51.058;13.712;2023-09-18T12:54:39;4.85;;;3.90;;
22814;SDS011;11574;51.058;13.712;2023-09-18T12:59:41;8.20;;;4.38;;
22814;SDS011;11574;51.058;13.712;2023-09-18T13:04:51;7.07;;;4.03;;
22814;SDS011;11574;51.058;13.712;2023-09-18T13:09:57;6.97;;;3.75;;
22814;SDS011;11574;51.058;13.712;2023-09-18T13:15:00;6.30;;;4.03;;
22814;SDS011;11574;51.058;13.712;2023-09-18T13:20:15;7.70;;;4.03;;
22814;SDS011;11574;51.058;13.712;2023-09-18T13:25:20;14.43;;;4.38;;
22814;SDS011;11574;51.058;13.712;2023-09-18T13:30:23;7.32;;;4.00;;
22814;SDS011;11574;51.058;13.712;2023-09-18T13:35:26;6.82;;;3.63;;
22814;SDS011;11574;51.058;13.712;2023-09-18T13:40:31;12.98;;;4.15;;
22814;SDS011;11574;51.058;13.712;2023-09-18T13:45:35;9.02;;;3.58;;
22814;SDS011;11574;51.058;13.712;2023-09-18T13:50:39;5.70;;;3.50;;
22814;SDS011;11574;51.058;13.712;2023-09-18T13:55:41;6.25;;;3.67;;
22814;SDS011;11574;51.058;13.712;2023-09-18T14:00:44;7.32;;;4.00;;
22814;SDS011;11574;51.058;13.712;2023-09-18T14:05:48;8.95;;;4.85;;
22814;SDS011;11574;51.058;13.712;2023-09-18T14:10:50;10.73;;;3.72;;
22814;SDS011;11574;51.058;13.712;2023-09-18T14:15:55;13.48;;;3.88;;
22814;SDS011;11574;51.058;13.712;2023-09-18T14:21:05;12.20;;;3.15;;
22814;SDS011;11574;51.058;13.712;2023-09-18T14:26:07;14.20;;;3.35;;
22814;SDS011;11574;51.058;13.712;2023-09-18T14:31:10;17.15;;;3.83;;
22814;SDS011;11574;51.058;13.712;2023-09-18T14:36:13;6.78;;;2.65;;
22814;SDS011;11574;51.058;13.712;2023-09-18T14:41:16;10.80;;;2.65;;
22814;SDS011;11574;51.058;13.712;2023-09-18T14:46:21;12.52;;;3.40;;
22814;SDS011;11574;51.058;13.712;2023-09-18T14:51:25;7.82;;;2.88;;
22814;SDS011;11574;51.058;13.712;2023-09-18T14:56:28;8.55;;;2.80;;
22814;SDS011;11574;51.058;13.712;2023-09-18T15:01:30;16.08;;;3.45;;
22814;SDS011;11574;51.058;13.712;2023-09-18T15:06:36;10.05;;;2.65;;
22814;SDS011;11574;51.058;13.712;2023-09-18T15:11:39;9.40;;;2.85;;
22814;SDS011;11574;51.058;13.712;2023-09-18T15:16:41;10.10;;;2.92;;
22814;SDS011;11574;51.058;13.712;2023-09-18T15:21:45;9.23;;;2.17;;
22814;SDS011;11574;51.058;13.712;2023-09-18T15:26:47;9.02;;;1.85;;
22814;SDS011;11574;51.058;13.712;2023-09-18T15:31:53;18.27;;;1.65;;
22814;SDS011;11574;51.058;13.712;2023-09-18T15:36:56;7.65;;;1.80;;
22814;SDS011;11574;51.058;13.712;2023-09-18T15:41:58;5.55;;;1.50;;
22814;SDS011;11574;51.058;13.712;2023-09-18T15:47:01;5.28;;;1.55;;
22814;SDS011;11574;51.058;13.712;2023-09-18T15:52:06;3.72;;;0.90;;
22814;SDS011;11574;51.058;13.712;2023-09-18T15:57:09;5.03;;;1.17;;
22814;SDS011;11574;51.058;13.712;2023-09-18T16:02:12;6.25;;;1.85;;
22814;SDS011;11574;51.058;13.712;2023-09-18T16:07:16;3.45;;;1.52;;
22814;SDS011;11574;51.058;13.712;2023-09-18T16:12:23;6.15;;;1.77;;
22814;SDS011;11574;51.058;13.712;2023-09-18T16:17:29;2.97;;;1.30;;
22814;SDS011;11574;51.058;13.712;2023-09-18T16:22:35;7.55;;;1.73;;
22814;SDS011;11574;51.058;13.712;2023-09-18T16:27:40;3.95;;;1.33;;
22814;SDS011;11574;51.058;13.712;2023-09-18T16:32:45;9.07;;;1.70;;
22814;SDS011;11574;51.058;13.712;2023-09-18T16:37:49;4.03;;;1.40;;
22814;SDS011;11574;51.058;13.712;2023-09-18T16:42:51;5.15;;;1.38;;
22814;SDS011;11574;51.058;13.712;2023-09-18T16:47:55;3.70;;;1.40;;
22814;SDS011;11574;51.058;13.712;2023-09-18T16:52:59;3.75;;;1.48;;
22814;SDS011;11574;51.058;13.712;2023-09-18T16:58:01;5.70;;;1.60;;
22814;SDS011;11574;51.058;13.712;2023-09-18T17:03:04;9.60;;;2.55;;
22814;SDS011;11574;51.058;13.712;2023-09-18T17:08:07;11.35;;;1.92;;
22814;SDS011;11574;51.058;13.712;2023-09-18T17:13:09;5.43;;;1.63;;
22814;SDS011;11574;51.058;13.712;2023-09-18T17:18:12;5.73;;;1.83;;
22814;SDS011;11574;51.058;13.712;2023-09-18T17:23:15;7.10;;;1.70;;
22814;SDS011;11574;51.058;13.712;2023-09-18T17:28:18;5.63;;;1.70;;
22814;SDS011;11574;51.058;13.712;2023-09-18T17:33:20;8.50;;;2.10;;
22814;SDS011;11574;51.058;13.712;2023-09-18T17:38:25;7.18;;;1.70;;
22814;SDS011;11574;51.058;13.712;2023-09-18T17:43:31;4.80;;;1.60;;
22814;SDS011;11574;51.058;13.712;2023-09-18T17:48:34;5.83;;;2.00;;
22814;SDS011;11574;51.058;13.712;2023-09-18T17:53:44;8.67;;;1.77;;
22814;SDS011;11574;51.058;13.712;2023-09-18T17:58:51;7.40;;;2.17;;
22814;SDS011;11574;51.058;13.712;2023-09-18T18:03:54;10.17;;;2.27;;
22814;SDS011;11574;51.058;13.712;2023-09-18T18:09:01;6.93;;;2.10;;
22814;SDS011;11574;51.058;13.712;2023-09-18T18:14:13;5.40;;;1.53;;
22814;SDS011;11574;51.058;13.712;2023-09-18T18:19:20;6.97;;;2.97;;
22814;SDS011;11574;51.058;13.712;2023-09-18T18:24:24;6.17;;;1.90;;
22814;SDS011;11574;51.058;13.712;2023-09-18T18:29:27;6.10;;;1.80;;
22814;SDS011;11574;51.058;13.712;2023-09-18T18:34:35;4.87;;;1.70;;
22814;SDS011;11574;51.058;13.712;2023-09-18T18:39:46;7.87;;;2.20;;
22814;SDS011;11574;51.058;13.712;2023-09-18T18:44:50;5.90;;;2.10;;
22814;SDS011;11574;51.058;13.712;2023-09-18T18:50:04;7.67;;;2.13;;
22814;SDS011;11574;51.058;13.712;2023-09-18T18:55:14;6.03;;;2.07;;
22814;SDS011;11574;51.058;13.712;2023-09-18T19:00:20;6.53;;;1.83;;
22814;SDS011;11574;51.058;13.712;2023-09-18T19:05:30;3.77;;;1.63;;
22814;SDS011;11574;51.058;13.712;2023-09-18T19:10:50;9.00;;;2.10;;
22814;SDS011;11574;51.058;13.712;2023-09-18T19:15:59;3.93;;;1.50;;
22814;SDS011;11574;51.058;13.712;2023-09-18T19:21:08;4.03;;;1.70;;
22814;SDS011;11574;51.058;13.712;2023-09-18T19:26:14;4.00;;;1.63;;
22814;SDS011;11574;51.058;13.712;2023-09-18T19:31:19;8.07;;;1.73;;
22814;SDS011;11574;51.058;13.712;2023-09-18T19:36:21;2.63;;;1.20;;
22814;SDS011;11574;51.058;13.712;2023-09-18T19:41:25;5.20;;;1.40;;
22814;SDS011;11574;51.058;13.712;2023-09-18T19:46:30;7.03;;;1.50;;
22814;SDS011;11574;51.058;13.712;2023-09-18T19:51:35;3.80;;;1.97;;
22814;SDS011;11574;51.058;13.712;2023-09-18T19:56:40;4.13;;;1.50;;
22814;SDS011;11574;51.058;13.712;2023-09-18T20:01:43;4.97;;;1.30;;
22814;SDS011;11574;51.058;13.712;2023-09-18T20:06:45;3.57;;;1.50;;
22814;SDS011;11574;51.058;13.712;2023-09-18T20:11:49;3.67;;;1.60;;
22814;SDS011;11574;51.058;13.712;2023-09-18T20:16:51;2.57;;;1.20;;
22814;SDS011;11574;51.058;13.712;2023-09-18T20:21:54;4.97;;;1.50;;
22814;SDS011;11574;51.058;13.712;2023-09-18T20:26:58;3.77;;;1.50;;
22814;SDS011;11574;51.058;13.712;2023-09-18T20:32:03;2.60;;;1.40;;
22814;SDS011;11574;51.058;13.712;2023-09-18T20:37:07;2.70;;;1.40;;
22814;SDS011;11574;51.058;13.712;2023-09-18T20:42:11;4.07;;;1.20;;
22814;SDS011;11574;51.058;13.712;2023-09-18T20:47:13;3.30;;;1.50;;
22814;SDS011;11574;51.058;13.712;2023-09-18T20:52:17;2.20;;;1.37;;
22814;SDS011;11574;51.058;13.712;2023-09-18T20:57:21;4.33;;;1.57;;
22814;SDS011;11574;51.058;13.712;2023-09-18T21:02:23;2.83;;;1.60;;
22814;SDS011;11574;51.058;13.712;2023-09-18T21:07:25;5.43;;;1.70;;
22814;SDS011;11574;51.058;13.712;2023-09-18T21:12:30;6.60;;;2.10;;
22814;SDS011;11574;51.058;13.712;2023-09-18T21:17:32;7.40;;;1.90;;
22814;SDS011;11574;51.058;13.712;2023-09-18T21:22:35;6.03;;;1.83;;
22814;SDS011;11574;51.058;13.712;2023-09-18T21:27:41;3.43;;;1.60;;
22814;SDS011;11574;51.058;13.712;2023-09-18T21:32:43;7.53;;;2.07;;
22814;SDS011;11574;51.058;13.712;2023-09-18T21:37:47;5.90;;;1.47;;
22814;SDS011;11574;51.058;13.712;2023-09-18T21:42:52;6.33;;;1.73;;
22814;SDS011;11574;51.058;13.712;2023-09-18T21:47:56;3.50;;;1.30;;
22814;SDS011;11574;51.058;13.712;2023-09-18T21:52:58;8.90;;;1.50;;
22814;SDS011;11574;51.058;13.712;2023-09-18T21:58:03;3.43;;;1.30;;
22814;SDS011;11574;51.058;13.712;2023-09-18T22:03:05;2.33;;;1.30;;
22814;SDS011;11574;51.058;13.712;2023-09-18T22:08:08;2.23;;;1.30;;
22814;SDS011;11574;51.058;13.712;2023-09-18T22:13:12;2.80;;;1.23;;
22814;SDS011;11574;51.058;13.712;2023-09-18T22:18:14;1.80;;;1.10;;
22814;SDS011;11574;51.058;13.712;2023-09-18T22:23:17;3.07;;;1.20;;
22814;SDS011;11574;51.058;13.712;2023-09-18T22:28:21;6.57;;;1.50;;
22814;SDS011;11574;51.058;13.712;2023-09-18T22:33:23;3.90;;;1.70;;
22814;SDS011;11574;51.058;13.712;2023-09-18T22:38:30;4.37;;;1.50;;
22814;SDS011;11574;51.058;13.712;2023-09-18T22:59:20;5.67;;;1.50;;
22814;SDS011;11574;51.058;13.712;2023-09-18T23:04:23;3.23;;;1.60;;
22814;SDS011;11574;51.058;13.712;2023-09-18T23:09:28;2.37;;;2.00;;
22814;SDS011;11574;51.058;13.712;2023-09-18T23:14:33;7.00;;;2.47;;
22814;SDS011;11574;51.058;13.712;2023-09-18T23:19:35;3.67;;;1.93;;
22814;SDS011;11574;51.058;13.712;2023-09-18T23:24:39;4.63;;;2.90;;
22814;SDS011;11574;51.058;13.712;2023-09-18T23:29:42;5.07;;;1.90;;
22814;SDS011;11574;51.058;13.712;2023-09-18T23:34:45;3.80;;;2.00;;
22814;SDS011;11574;51.058;13.712;2023-09-18T23:39:52;3.50;;;1.40;;
22814;SDS011;11574;51.058;13.712;2023-09-18T23:44:55;2.73;;;1.40;;
22814;SDS011;11574;51.058;13.712;2023-09-18T23:49:58;2.83;;;1.50;;
22814;SDS011;11574;51.058;13.712;2023-09-18T23:55:07;4.40;;;1.80;;
